Puto Island — XUTS7 — position and weather

sailwx.info

Track history (hours):
 
Tides and Currents Weather Stations Pressure Air Temp Water Temp Dewpoint Dewpoint Depression Visibility Wind Speed Wind Dir Waves Ship Positions

Puto Island

Last reported at 2015-Jan-15 06:14 UTC. Time now 2015-Jan-31 14:41 UTC.
Position N 31°03' E 122°18'.
Warning: this ship's position is 16 days out of date.

Length 71 m; draft 3.6 m.

Type: Cargo ship. MMSI: 514198000.

Date/timePositionNaut miles runAvg speedWind from/ knotsBaromVisibWave heightAir tempDewpointWater temp
2015-Jan-15 06:14N 31°03' E 122°18'6 8.8
2015-Jan-15 05:33N 31°03' E 122°11'1111.1
2015-Jan-15 04:33N 31°06' E 121°59'1313.0
2015-Jan-15 03:33N 31°14' E 121°47'1212.2
2015-Jan-15 02:33N 31°22' E 121°36'5 5.0
2015-Jan-15 01:33N 31°21' E 121°31'0 0.0
2015-Jan-15 00:14N 31°21' E 121°31'0 0.0
2015-Jan-14 23:32N 31°21' E 121°31'0 0.0
2015-Jan-14 22:08N 31°21' E 121°31'0 0.0
2015-Jan-14 21:20N 31°21' E 121°31'0 0.0
2015-Jan-14 20:20N 31°21' E 121°31'0 0.0
2015-Jan-14 19:20N 31°21' E 121°31'0 0.0
2015-Jan-14 18:08N 31°21' E 121°31'0 0.0
2015-Jan-14 16:26N 31°21' E 121°31'0 0.0
2015-Jan-14 15:32N 31°21' E 121°31'1 0.6
2015-Jan-14 13:33N 31°22' E 121°30'4 3.7
2015-Jan-14 12:33N 31°23' E 121°34'9 9.0
2015-Jan-14 11:33N 31°18' E 121°43'1110.6
2015-Jan-14 10:33N 31°11' E 121°51'1110.6
2015-Jan-14 09:33N 31°05' E 122°02'10 9.6
2015-Jan-14 08:31N 31°03' E 122°13'  
2015-Jan-07 08:33N 34°36' E 135°05'9 9.3
2015-Jan-07 07:33N 34°37' E 135°16'8 8.0
2015-Jan-07 06:33N 34°39' E 135°25'0 0.0
2015-Jan-06 17:17N 34°39' E 135°25'0 0.0
2015-Jan-06 14:29N 34°39' E 135°25'0 0.0
2015-Jan-06 13:29N 34°39' E 135°25'0 0.0
2015-Jan-06 09:17N 34°39' E 135°25'0 0.0
2015-Jan-06 08:29N 34°39' E 135°25'0 0.0
2015-Jan-06 07:29N 34°39' E 135°25'0 0.0
2015-Jan-06 04:11N 34°39' E 135°25'0 0.0
2015-Jan-06 03:29N 34°39' E 135°25'0 0.0
2015-Jan-06 02:05N 34°39' E 135°25'0 0.0
2015-Jan-06 01:29N 34°39' E 135°25'0 0.0
2015-Jan-06 00:23N 34°39' E 135°25'0 0.0
2015-Jan-05 23:29N 34°39' E 135°25'0 0.0
2015-Jan-05 22:30N 34°39' E 135°25'3 3.0
2015-Jan-05 21:33N 34°37' E 135°23'0 0.0
2015-Jan-05 20:23N 34°37' E 135°23'0 0.0
2015-Jan-05 19:29N 34°37' E 135°23'0 0.0
2015-Jan-05 18:29N 34°37' E 135°23'0 0.0
2015-Jan-05 17:29N 34°37' E 135°23'0 0.0
2015-Jan-05 16:23N 34°37' E 135°23'0 0.0
2015-Jan-05 15:29N 34°37' E 135°23'0 0.0
2015-Jan-05 13:23N 34°37' E 135°23'0 0.0
2015-Jan-05 12:29N 34°37' E 135°23'0 0.0
2015-Jan-05 11:23N 34°37' E 135°23'0 0.1
2015-Jan-05 10:29N 34°37' E 135°23'0 0.0
2015-Jan-05 09:17N 34°37' E 135°23'  
Track history (hours):
 
Tides and Currents Weather Stations Pressure Air Temp Water Temp Dewpoint Dewpoint Depression Visibility Wind Speed Wind Dir Waves Ship Positions

Puto Island

Last reported at 2015-Jan-15 06:14 UTC. Time now 2015-Jan-31 14:41 UTC.
Position N 31°03' E 122°18'.
Warning: this ship's position is 16 days out of date.

Length 71 m; draft 3.6 m.

Type: Cargo ship. MMSI: 514198000.

Date/timePositionNaut miles runAvg speedWind from/ knotsBaromVisibWave heightAir tempDewpointWater temp
2015-Jan-15 06:14N 31°03' E 122°18'6 8.8
2015-Jan-15 05:33N 31°03' E 122°11'1111.1
2015-Jan-15 04:33N 31°06' E 121°59'1313.0
2015-Jan-15 03:33N 31°14' E 121°47'1212.2
2015-Jan-15 02:33N 31°22' E 121°36'5 5.0
2015-Jan-15 01:33N 31°21' E 121°31'0 0.0
2015-Jan-15 00:14N 31°21' E 121°31'0 0.0
2015-Jan-14 23:32N 31°21' E 121°31'0 0.0
2015-Jan-14 22:08N 31°21' E 121°31'0 0.0
2015-Jan-14 21:20N 31°21' E 121°31'0 0.0
2015-Jan-14 20:20N 31°21' E 121°31'0 0.0
2015-Jan-14 19:20N 31°21' E 121°31'0 0.0
2015-Jan-14 18:08N 31°21' E 121°31'0 0.0
2015-Jan-14 16:26N 31°21' E 121°31'0 0.0
2015-Jan-14 15:32N 31°21' E 121°31'1 0.6
2015-Jan-14 13:33N 31°22' E 121°30'4 3.7
2015-Jan-14 12:33N 31°23' E 121°34'9 9.0
2015-Jan-14 11:33N 31°18' E 121°43'1110.6
2015-Jan-14 10:33N 31°11' E 121°51'1110.6
2015-Jan-14 09:33N 31°05' E 122°02'10 9.6
2015-Jan-14 08:31N 31°03' E 122°13'  
2015-Jan-07 08:33N 34°36' E 135°05'9 9.3
2015-Jan-07 07:33N 34°37' E 135°16'8 8.0
2015-Jan-07 06:33N 34°39' E 135°25'0 0.0
2015-Jan-06 17:17N 34°39' E 135°25'0 0.0
2015-Jan-06 14:29N 34°39' E 135°25'0 0.0
2015-Jan-06 13:29N 34°39' E 135°25'0 0.0
2015-Jan-06 09:17N 34°39' E 135°25'0 0.0
2015-Jan-06 08:29N 34°39' E 135°25'0 0.0
2015-Jan-06 07:29N 34°39' E 135°25'0 0.0
2015-Jan-06 04:11N 34°39' E 135°25'0 0.0
2015-Jan-06 03:29N 34°39' E 135°25'0 0.0
2015-Jan-06 02:05N 34°39' E 135°25'0 0.0
2015-Jan-06 01:29N 34°39' E 135°25'0 0.0
2015-Jan-06 00:23N 34°39' E 135°25'0 0.0
2015-Jan-05 23:29N 34°39' E 135°25'0 0.0
2015-Jan-05 22:30N 34°39' E 135°25'3 3.0
2015-Jan-05 21:33N 34°37' E 135°23'0 0.0
2015-Jan-05 20:23N 34°37' E 135°23'0 0.0
2015-Jan-05 19:29N 34°37' E 135°23'0 0.0
2015-Jan-05 18:29N 34°37' E 135°23'0 0.0
2015-Jan-05 17:29N 34°37' E 135°23'0 0.0
2015-Jan-05 16:23N 34°37' E 135°23'0 0.0
2015-Jan-05 15:29N 34°37' E 135°23'0 0.0
2015-Jan-05 13:23N 34°37' E 135°23'0 0.0
2015-Jan-05 12:29N 34°37' E 135°23'0 0.0
2015-Jan-05 11:23N 34°37' E 135°23'0 0.1
2015-Jan-05 10:29N 34°37' E 135°23'0 0.0
2015-Jan-05 09:17N 34°37' E 135°23'  

Dump ship's entire track history